Time;durP1;ratioP1;P1;durP2;ratioP2;P2;SDS_P1;SDS_P2;PMS_P1;PMS_P2;Temp;Humidity;BMP_temperature;BMP_pressure;BME280_temperature;BME280_humidity;BME280_pressure;Samples;Min_cycle;Max_cycle;Signal;HPM_P1;HPM_P2
2021/11/07 00:00:54;;;;;;;56.90;40.15;;;10.40;99.90;;;;;;5067488;28;20054;-48
2021/11/07 00:03:26;;;;;;;59.38;40.63;;;10.40;99.90;;;;;;5067736;28;20056;-49
2021/11/07 00:11:00;;;;;;;59.30;40.20;;;10.50;99.90;;;;;;5035919;28;20468;-48
2021/11/07 00:13:27;;;;;;;241.07;94.93;;;10.50;99.90;;;;;;5044838;28;20123;-49
2021/11/07 00:15:57;;;;;;;57.47;40.10;;;10.80;99.90;;;;;;5044892;28;20040;-50
2021/11/07 00:18:33;;;;;;;61.55;42.00;;;10.90;99.90;;;;;;5040681;28;20053;-49
2021/11/07 00:28:47;;;;;;;56.63;41.42;;;11.00;99.90;;;;;;5046984;28;20041;-49
2021/11/07 00:44:34;;;;;;;48.58;34.40;;;11.00;99.90;;;;;;5051672;28;20063;-49
2021/11/07 00:47:12;;;;;;;44.38;33.80;;;11.00;99.90;;;;;;5062526;28;20044;-49
2021/11/07 00:49:45;;;;;;;45.22;33.38;;;11.10;99.90;;;;;;5074492;28;20064;-49
2021/11/07 00:55:26;;;;;;;51.72;36.15;;;11.20;99.90;;;;;;5046681;28;20106;-48
2021/11/07 00:58:13;;;;;;;47.00;34.35;;;11.20;99.90;;;;;;5061084;28;20029;-49
2021/11/07 01:00:58;;;;;;;47.25;36.40;;;11.30;99.90;;;;;;5060664;28;20032;-49
2021/11/07 01:03:24;;;;;;;44.63;33.13;;;11.30;99.90;;;;;;5067499;28;20025;-49
2021/11/07 01:05:51;;;;;;;48.08;35.05;;;11.40;99.90;;;;;;5068024;28;20032;-49
2021/11/07 01:08:16;;;;;;;44.53;33.30;;;11.30;99.90;;;;;;5061653;28;20029;-49
2021/11/07 01:10:42;;;;;;;42.25;31.33;;;11.30;99.90;;;;;;5062081;28;20048;-50
2021/11/07 01:13:08;;;;;;;42.40;30.50;;;11.20;99.90;;;;;;5063138;28;20357;-49
2021/11/07 01:15:36;;;;;;;35.97;27.42;;;11.00;99.90;;;;;;5063789;28;20021;-49
2021/11/07 01:18:02;;;;;;;37.22;27.65;;;10.70;99.90;;;;;;5070751;28;20447;-50
2021/11/07 01:20:30;;;;;;;33.47;25.73;;;10.60;99.90;;;;;;5058196;28;20024;-48
2021/11/07 01:25:35;;;;;;;35.72;25.83;;;10.50;99.90;;;;;;5066948;28;20087;-49
2021/11/07 01:28:04;;;;;;;34.97;24.42;;;10.40;99.90;;;;;;5064291;28;20036;-51
2021/11/07 01:30:32;;;;;;;30.98;23.42;;;10.30;99.90;;;;;;5068571;28;20025;-51
2021/11/07 01:33:05;;;;;;;32.83;23.80;;;10.30;99.90;;;;;;5044904;28;20048;-48
2021/11/07 01:38:25;;;;;;;31.38;23.35;;;10.40;99.90;;;;;;5072842;28;20020;-49
2021/11/07 01:40:58;;;;;;;30.88;22.02;;;10.60;99.90;;;;;;5067167;28;20048;-51
2021/11/07 01:43:24;;;;;;;28.10;21.58;;;10.80;99.90;;;;;;5032237;28;20045;-51
2021/11/07 01:45:59;;;;;;;32.25;24.55;;;10.30;99.90;;;;;;5069563;28;20099;-49
2021/11/07 01:48:28;;;;;;;28.38;22.33;;;10.50;99.90;;;;;;5067548;28;20055;-50
2021/11/07 01:50:57;;;;;;;28.20;21.30;;;10.70;99.90;;;;;;5061421;28;20033;-49
2021/11/07 01:53:29;;;;;;;30.25;21.27;;;10.50;99.90;;;;;;5064649;28;20464;-49
2021/11/07 01:56:03;;;;;;;30.92;22.15;;;10.50;99.90;;;;;;5064693;28;20039;-48
2021/11/07 01:58:31;;;;;;;33.53;22.08;;;10.30;99.90;;;;;;5061940;28;20127;-49
2021/11/07 02:00:58;;;;;;;29.48;21.77;;;10.30;99.90;;;;;;5059341;28;20691;-49
2021/11/07 02:03:24;;;;;;;32.55;21.80;;;10.30;99.90;;;;;;5067744;28;20033;-49
2021/11/07 02:05:50;;;;;;;32.53;23.48;;;10.20;99.90;;;;;;5062225;28;20032;-50
2021/11/07 02:08:19;;;;;;;37.92;24.58;;;10.20;99.90;;;;;;5063446;28;20043;-48
2021/11/07 02:10:45;;;;;;;37.42;26.02;;;10.10;99.90;;;;;;5062595;28;20435;-49
2021/11/07 02:13:11;;;;;;;34.65;23.95;;;10.20;99.90;;;;;;5069142;28;20036;-50
2021/11/07 02:15:37;;;;;;;33.70;24.00;;;10.20;99.90;;;;;;5051633;28;20028;-48
2021/11/07 02:18:04;;;;;;;32.58;23.10;;;10.30;99.90;;;;;;5063708;28;20448;-50
2021/11/07 02:20:32;;;;;;;32.42;22.60;;;10.20;99.90;;;;;;5063167;28;20021;-48
2021/11/07 02:23:07;;;;;;;33.78;23.27;;;10.20;99.90;;;;;;5068391;28;20033;-51
2021/11/07 02:25:35;;;;;;;29.98;22.80;;;10.30;99.90;;;;;;5063571;28;20102;-49
2021/11/07 02:28:03;;;;;;;32.45;23.35;;;10.50;99.90;;;;;;5061731;28;20039;-48
2021/11/07 02:30:29;;;;;;;34.25;23.42;;;10.60;99.90;;;;;;5065877;28;20036;-50
2021/11/07 02:32:58;;;;;;;34.67;23.38;;;10.50;99.90;;;;;;5066759;28;20039;-49
2021/11/07 02:35:26;;;;;;;32.60;23.90;;;10.40;99.90;;;;;;5071190;28;20032;-50
2021/11/07 02:37:52;;;;;;;36.10;24.33;;;10.50;99.90;;;;;;5070832;28;20057;-49
2021/11/07 02:40:19;;;;;;;35.65;24.05;;;10.50;99.90;;;;;;5065009;28;20029;-49
2021/11/07 02:42:46;;;;;;;30.25;22.17;;;10.60;99.90;;;;;;5069657;28;20032;-48
2021/11/07 02:45:14;;;;;;;32.15;22.83;;;10.80;99.90;;;;;;5062610;28;20033;-49
2021/11/07 02:47:40;;;;;;;35.00;23.77;;;10.80;99.90;;;;;;5073245;28;20115;-49
2021/11/07 02:50:07;;;;;;;34.92;23.95;;;10.50;99.90;;;;;;5071426;28;20094;-49
2021/11/07 02:52:33;;;;;;;35.53;23.17;;;10.30;99.90;;;;;;5066828;28;20025;-50
2021/11/07 02:55:00;;;;;;;34.72;22.90;;;10.20;99.90;;;;;;5062616;28;20104;-48
2021/11/07 02:57:26;;;;;;;34.97;22.60;;;10.20;99.90;;;;;;5073806;28;20028;-49
2021/11/07 02:59:58;;;;;;;36.47;24.33;;;10.30;99.90;;;;;;5065864;28;20061;-49
2021/11/07 03:02:25;;;;;;;31.02;22.17;;;10.20;99.90;;;;;;5056267;28;20043;-49
2021/11/07 03:04:51;;;;;;;35.35;24.55;;;10.30;99.90;;;;;;5069323;28;20036;-49
2021/11/07 03:07:18;;;;;;;37.72;23.75;;;10.10;99.90;;;;;;5067806;28;20495;-50
2021/11/07 03:09:44;;;;;;;38.85;23.73;;;10.20;99.90;;;;;;5063453;28;20033;-48
2021/11/07 03:12:11;;;;;;;34.50;23.25;;;10.20;99.90;;;;;;5048014;28;20028;-49
2021/11/07 03:14:51;;;;;;;34.38;24.20;;;10.30;99.90;;;;;;5071629;28;20471;-49
2021/11/07 03:17:20;;;;;;;34.83;22.95;;;10.40;99.90;;;;;;5071437;28;20040;-50
2021/11/07 03:19:48;;;;;;;33.22;24.00;;;10.40;99.90;;;;;;5064866;28;20025;-48
2021/11/07 03:22:19;;;;;;;39.80;24.85;;;10.60;99.90;;;;;;5070282;28;20016;-49
2021/11/07 03:24:46;;;;;;;32.47;20.95;;;10.80;99.90;;;;;;5069206;28;20555;-49
2021/11/07 03:27:19;;;;;;;34.97;22.35;;;10.70;99.90;;;;;;5064819;28;20453;-50
2021/11/07 03:29:49;;;;;;;34.40;21.02;;;10.20;99.90;;;;;;5069449;28;20469;-50
2021/11/07 03:32:38;;;;;;;41.45;23.95;;;9.80;99.90;;;;;;5069920;28;20020;-48
2021/11/07 03:35:04;;;;;;;35.45;22.83;;;9.80;99.90;;;;;;5067137;28;20041;-48
2021/11/07 03:37:37;;;;;;;37.38;21.85;;;10.20;99.90;;;;;;5069592;28;20326;-50
2021/11/07 03:40:08;;;;;;;36.55;23.73;;;10.40;99.90;;;;;;5069791;28;20064;-50
2021/11/07 03:42:34;;;;;;;50.95;30.85;;;10.60;99.90;;;;;;5065108;28;20497;-48
2021/11/07 03:45:00;;;;;;;38.90;25.30;;;10.90;99.90;;;;;;5069756;28;20067;-49
2021/11/07 03:47:26;;;;;;;40.25;25.15;;;11.00;99.90;;;;;;5070076;28;20056;-49
2021/11/07 03:49:53;;;;;;;43.15;24.45;;;10.90;99.90;;;;;;5068033;28;20028;-49
2021/11/07 03:52:19;;;;;;;38.33;23.52;;;10.70;99.90;;;;;;5064965;28;20039;-48
2021/11/07 03:54:46;;;;;;;39.42;24.25;;;10.60;99.90;;;;;;5066739;28;20021;-49
2021/11/07 03:57:13;;;;;;;35.03;22.33;;;10.80;99.90;;;;;;5042885;28;20062;-50
2021/11/07 03:59:40;;;;;;;31.77;22.58;;;10.90;99.90;;;;;;5052616;28;20056;-49
2021/11/07 04:02:06;;;;;;;33.97;22.50;;;11.00;99.90;;;;;;5072521;28;20025;-50
2021/11/07 04:04:32;;;;;;;32.88;22.63;;;11.10;99.90;;;;;;5060692;28;20043;-50
2021/11/07 04:06:58;;;;;;;32.47;23.05;;;11.00;99.90;;;;;;5066008;28;20029;-49
2021/11/07 04:09:24;;;;;;;31.65;23.00;;;11.00;99.90;;;;;;5071786;28;20494;-49
2021/11/07 04:11:50;;;;;;;33.90;22.50;;;11.10;99.90;;;;;;5068958;28;20134;-49
2021/11/07 04:14:16;;;;;;;30.88;21.55;;;11.10;99.90;;;;;;5066180;28;20032;-49
2021/11/07 04:16:42;;;;;;;35.72;23.35;;;11.20;99.90;;;;;;5068576;28;20056;-48
2021/11/07 04:19:10;;;;;;;33.92;23.45;;;11.20;99.90;;;;;;5067295;28;20029;-49
2021/11/07 04:21:38;;;;;;;43.75;24.42;;;11.20;99.90;;;;;;5059658;28;20120;-50
2021/11/07 04:24:04;;;;;;;40.97;23.05;;;11.00;99.90;;;;;;5065448;28;20056;-48
2021/11/07 04:26:30;;;;;;;36.13;22.67;;;11.00;99.90;;;;;;5063940;28;20429;-49
2021/11/07 04:28:56;;;;;;;38.65;24.38;;;10.90;99.90;;;;;;5064237;28;20040;-50
2021/11/07 04:31:22;;;;;;;37.10;23.13;;;11.00;99.90;;;;;;5043629;28;20106;-49
2021/11/07 04:33:48;;;;;;;38.40;24.33;;;11.10;99.90;;;;;;5044522;28;20432;-49
2021/11/07 04:36:15;;;;;;;30.92;21.63;;;11.10;99.90;;;;;;5049182;28;20067;-48
2021/11/07 04:38:41;;;;;;;29.67;19.92;;;11.10;99.90;;;;;;5045766;28;20045;-48
2021/11/07 04:41:08;;;;;;;34.67;21.33;;;11.10;99.90;;;;;;5045415;28;20555;-49
2021/11/07 04:43:34;;;;;;;30.25;21.02;;;10.60;99.90;;;;;;5044305;28;20512;-49
2021/11/07 04:46:00;;;;;;;30.35;20.90;;;10.70;99.90;;;;;;5048066;28;20021;-50
2021/11/07 04:48:26;;;;;;;32.42;20.30;;;10.50;99.90;;;;;;5041707;28;20037;-49
2021/11/07 04:50:52;;;;;;;30.90;20.20;;;10.40;99.90;;;;;;5048627;28;20416;-49
2021/11/07 04:53:21;;;;;;;31.08;20.23;;;10.50;99.90;;;;;;5044029;28;20484;-51
2021/11/07 04:55:48;;;;;;;32.97;20.45;;;10.30;99.90;;;;;;5062903;28;20397;-49
2021/11/07 04:58:15;;;;;;;30.52;20.00;;;10.20;99.90;;;;;;5047587;28;20026;-50
2021/11/07 05:00:41;;;;;;;27.85;19.65;;;10.30;99.90;;;;;;5045737;28;20029;-50
2021/11/07 05:03:08;;;;;;;30.88;20.30;;;10.40;99.90;;;;;;5044626;28;20021;-49
2021/11/07 05:05:35;;;;;;;32.95;23.13;;;10.00;99.90;;;;;;5065694;28;20379;-49
2021/11/07 05:08:01;;;;;;;32.72;20.80;;;10.10;99.90;;;;;;5064014;28;20495;-49
2021/11/07 05:10:28;;;;;;;32.03;20.70;;;9.90;99.90;;;;;;5069473;28;20060;-49
2021/11/07 05:12:54;;;;;;;31.13;20.58;;;9.80;99.90;;;;;;5063947;28;20074;-49
2021/11/07 05:15:20;;;;;;;34.03;19.80;;;9.90;99.90;;;;;;5066264;28;20041;-49
2021/11/07 05:17:46;;;;;;;29.80;20.13;;;10.30;99.90;;;;;;5063066;28;20059;-48
2021/11/07 05:20:12;;;;;;;41.05;27.25;;;10.50;99.90;;;;;;5061043;28;20037;-49
2021/11/07 05:22:38;;;;;;;28.48;18.73;;;10.30;99.90;;;;;;5064764;28;20033;-50
2021/11/07 05:25:07;;;;;;;34.13;23.33;;;10.10;99.90;;;;;;5068159;28;20032;-50
2021/11/07 05:27:33;;;;;;;39.53;29.90;;;10.00;99.90;;;;;;5049249;28;20345;-49
2021/11/07 05:29:59;;;;;;;42.80;32.97;;;9.90;99.90;;;;;;5067581;28;20055;-50
2021/11/07 05:32:25;;;;;;;37.83;26.92;;;9.80;99.90;;;;;;5063718;28;20029;-47
2021/11/07 05:34:51;;;;;;;29.77;19.73;;;10.00;99.90;;;;;;5061285;28;20480;-49
2021/11/07 05:37:17;;;;;;;45.25;34.88;;;10.10;99.90;;;;;;5065882;28;20027;-48
2021/11/07 05:39:43;;;;;;;110.75;91.20;;;10.10;99.90;;;;;;5068980;28;20081;-49
2021/11/07 05:42:10;;;;;;;27.10;18.27;;;10.10;99.90;;;;;;5070527;28;20079;-49
2021/11/07 05:44:37;;;;;;;33.38;21.77;;;10.10;99.90;;;;;;5069943;28;20029;-49
2021/11/07 05:47:03;;;;;;;34.97;25.50;;;9.80;99.90;;;;;;5074598;28;20032;-49
2021/11/07 05:49:29;;;;;;;44.20;33.67;;;9.50;99.90;;;;;;5071683;28;20418;-49
2021/11/07 05:51:55;;;;;;;24.95;17.25;;;9.30;99.90;;;;;;5074290;28;20032;-50
2021/11/07 05:54:21;;;;;;;29.17;19.88;;;9.20;99.90;;;;;;5046169;28;20128;-49
2021/11/07 05:56:48;;;;;;;35.45;23.83;;;9.10;99.90;;;;;;5073871;28;20028;-49
2021/11/07 05:59:14;;;;;;;25.15;17.20;;;9.20;99.90;;;;;;5062361;28;20029;-50
2021/11/07 06:01:40;;;;;;;28.33;19.00;;;9.30;99.90;;;;;;5049107;28;20056;-50
2021/11/07 06:04:07;;;;;;;31.20;21.27;;;9.30;99.90;;;;;;5071148;28;20388;-48
2021/11/07 06:06:33;;;;;;;29.75;19.92;;;9.60;99.90;;;;;;5066247;28;20024;-50
2021/11/07 06:09:00;;;;;;;31.10;21.75;;;9.90;99.90;;;;;;5071752;28;20111;-48
2021/11/07 06:11:27;;;;;;;30.63;19.80;;;10.10;99.90;;;;;;5061816;28;20396;-48
2021/11/07 06:13:52;;;;;;;26.30;19.35;;;10.40;99.90;;;;;;5069886;28;20472;-50
2021/11/07 06:16:18;;;;;;;30.35;19.75;;;10.40;99.90;;;;;;5068155;28;20090;-48
2021/11/07 06:18:45;;;;;;;30.05;23.30;;;10.50;99.90;;;;;;5064447;28;20040;-49
2021/11/07 06:21:11;;;;;;;25.70;17.15;;;10.30;99.90;;;;;;5067693;28;20025;-49
2021/11/07 06:23:37;;;;;;;23.05;17.13;;;10.30;99.90;;;;;;5069270;28;20120;-49
2021/11/07 06:26:03;;;;;;;25.65;17.02;;;10.30;99.90;;;;;;5064824;28;20033;-49
2021/11/07 06:28:29;;;;;;;25.20;16.60;;;10.20;99.90;;;;;;5069200;28;20552;-50
2021/11/07 06:30:59;;;;;;;23.63;17.48;;;10.00;99.90;;;;;;5067530;28;20096;-49
2021/11/07 06:33:25;;;;;;;25.48;18.35;;;10.30;99.90;;;;;;5032147;28;20076;-48
2021/11/07 06:35:51;;;;;;;28.77;20.02;;;10.40;99.90;;;;;;5073842;28;20048;-49
2021/11/07 06:38:17;;;;;;;23.13;15.98;;;10.50;99.90;;;;;;5068240;28;20024;-48
2021/11/07 06:40:42;;;;;;;23.88;16.20;;;10.60;99.90;;;;;;5063857;28;20036;-49
2021/11/07 06:43:08;;;;;;;22.63;15.02;;;10.80;99.90;;;;;;5074434;28;20024;-49
2021/11/07 06:45:35;;;;;;;22.98;14.90;;;11.00;99.90;;;;;;5068594;28;20385;-50
2021/11/07 06:48:01;;;;;;;26.27;17.17;;;11.10;99.90;;;;;;5066628;28;20041;-49
2021/11/07 06:50:28;;;;;;;26.42;18.10;;;11.00;99.90;;;;;;5066839;28;20033;-48
2021/11/07 06:52:54;;;;;;;26.10;18.45;;;11.00;99.90;;;;;;5068021;28;20044;-49
2021/11/07 06:55:20;;;;;;;26.75;18.33;;;10.80;99.90;;;;;;5070436;28;20064;-49
2021/11/07 06:57:47;;;;;;;23.85;17.52;;;10.70;99.90;;;;;;5081535;28;20036;-47
2021/11/07 07:00:19;;;;;;;28.08;18.70;;;10.50;99.90;;;;;;5064121;28;20480;-49
2021/11/07 07:02:46;;;;;;;24.95;18.17;;;10.40;99.90;;;;;;5069849;28;20424;-49
2021/11/07 07:05:13;;;;;;;26.20;18.15;;;10.30;99.90;;;;;;5068316;28;20468;-49
2021/11/07 07:07:43;;;;;;;27.45;19.27;;;10.30;99.90;;;;;;5067930;28;20040;-48
2021/11/07 07:10:14;;;;;;;27.55;17.60;;;10.30;99.90;;;;;;5040541;28;20086;-49
2021/11/07 07:15:11;;;;;;;27.02;17.10;;;10.30;99.90;;;;;;5059359;28;20541;-49
2021/11/07 07:28:29;;;;;;;26.77;18.00;;;10.50;99.90;;;;;;5066805;28;20093;-49
2021/11/07 07:33:29;;;;;;;25.80;18.80;;;10.50;99.90;;;;;;5062836;28;20074;-49
2021/11/07 07:35:56;;;;;;;27.33;19.50;;;10.50;99.90;;;;;;5067777;28;20456;-51
2021/11/07 07:38:24;;;;;;;32.03;22.75;;;10.60;99.90;;;;;;5063478;28;20067;-48
2021/11/07 07:40:50;;;;;;;53.30;37.28;;;10.70;99.90;;;;;;5059579;28;20028;-48
2021/11/07 07:43:17;;;;;;;27.92;19.52;;;10.40;99.90;;;;;;5061023;28;20028;-50
2021/11/07 07:45:43;;;;;;;40.05;26.17;;;10.40;99.90;;;;;;5029183;28;20069;-51
2021/11/07 07:48:09;;;;;;;33.88;24.30;;;10.40;99.90;;;;;;5047619;28;20052;-54
2021/11/07 07:50:38;;;;;;;32.17;23.75;;;10.10;99.90;;;;;;5068546;28;20423;-48
2021/11/07 07:53:05;;;;;;;176.65;119.03;;;10.10;99.90;;;;;;5062329;28;20550;-49
2021/11/07 07:55:31;;;;;;;58.90;42.15;;;10.20;99.90;;;;;;5077804;28;20408;-46
2021/11/07 07:57:57;;;;;;;102.22;78.47;;;10.30;99.90;;;;;;5069687;28;20479;-51
2021/11/07 08:00:23;;;;;;;41.13;31.48;;;10.20;99.90;;;;;;5064288;28;20074;-48
2021/11/07 08:02:49;;;;;;;52.25;39.70;;;10.20;99.90;;;;;;5072326;28;20024;-48
2021/11/07 08:05:16;;;;;;;42.22;32.78;;;10.10;99.90;;;;;;5047000;28;20062;-49
2021/11/07 08:07:43;;;;;;;41.17;32.58;;;10.10;99.90;;;;;;5050555;28;20056;-47
2021/11/07 08:10:11;;;;;;;33.90;24.45;;;10.10;99.90;;;;;;5056700;28;20039;-50
2021/11/07 08:12:38;;;;;;;39.92;28.92;;;10.00;99.90;;;;;;5061960;28;20029;-50
2021/11/07 08:15:05;;;;;;;33.25;22.77;;;9.90;99.90;;;;;;5068607;28;20036;-46
2021/11/07 08:17:31;;;;;;;31.70;20.73;;;9.70;99.90;;;;;;5069070;28;20053;-48
2021/11/07 08:19:57;;;;;;;31.02;20.65;;;9.80;99.90;;;;;;5066601;28;20034;-50
2021/11/07 08:22:23;;;;;;;39.55;28.20;;;9.60;99.90;;;;;;5064390;28;20037;-50
2021/11/07 08:24:48;;;;;;;37.22;24.85;;;9.60;99.90;;;;;;5063706;28;20028;-49
2021/11/07 08:27:16;;;;;;;31.58;18.48;;;9.70;99.90;;;;;;5067469;28;20028;-52
2021/11/07 08:29:44;;;;;;;42.03;29.20;;;9.50;99.90;;;;;;5069196;28;20082;-50
2021/11/07 08:32:10;;;;;;;31.90;20.25;;;9.60;99.90;;;;;;5065900;28;20032;-51
2021/11/07 08:34:36;;;;;;;39.13;25.98;;;9.60;99.90;;;;;;5064586;28;20090;-52
2021/11/07 08:37:13;;;;;;;44.63;28.05;;;9.70;99.90;;;;;;5069327;28;20039;-48
2021/11/07 08:42:16;;;;;;;44.65;28.38;;;9.80;99.90;;;;;;5063074;28;20078;-52
2021/11/07 09:01:27;;;;;;;54.75;33.08;;;9.40;99.90;;;;;;5021809;28;20386;-52
2021/11/07 09:08:48;;;;;;;85.32;44.65;;;10.00;99.90;;;;;;5026094;28;20135;-53
2021/11/07 09:11:16;;;;;;;54.58;29.83;;;10.10;99.90;;;;;;5017747;28;20084;-49
2021/11/07 09:13:41;;;;;;;51.72;29.08;;;10.00;99.90;;;;;;5017600;28;20100;-51
2021/11/07 09:16:09;;;;;;;46.47;27.20;;;10.00;99.90;;;;;;5010200;28;20473;-47
2021/11/07 09:18:36;;;;;;;53.63;27.77;;;10.00;99.90;;;;;;5024109;28;20033;-49
2021/11/07 09:21:10;;;;;;;44.20;24.92;;;10.10;99.90;;;;;;5025774;28;20052;-51
2021/11/07 09:23:43;;;;;;;51.05;29.23;;;10.20;99.90;;;;;;4994967;28;20069;-45
2021/11/07 09:34:04;;;;;;;44.22;26.00;;;10.20;99.90;;;;;;5023642;28;20032;-50
2021/11/07 09:36:38;;;;;;;44.22;26.50;;;10.20;99.90;;;;;;5060744;28;20051;-50
2021/11/07 09:44:09;;;;;;;54.60;31.25;;;10.30;99.90;;;;;;5063834;28;20078;-46
2021/11/07 09:46:57;;;;;;;47.17;29.17;;;10.40;99.90;;;;;;5061592;28;20036;-50
2021/11/07 09:49:32;;;;;;;44.63;27.63;;;10.40;99.90;;;;;;5054241;28;20044;-50
2021/11/07 09:52:13;;;;;;;43.08;28.55;;;10.50;99.90;;;;;;5056879;28;20040;-49
2021/11/07 09:54:46;;;;;;;53.20;32.95;;;10.40;99.90;;;;;;5047193;28;20049;-47
2021/11/07 09:57:16;;;;;;;34.92;20.52;;;10.40;99.90;;;;;;5047527;28;20033;-51
2021/11/07 09:59:42;;;;;;;38.17;24.10;;;10.30;99.90;;;;;;5047014;28;20072;-50
2021/11/07 10:02:08;;;;;;;42.95;28.20;;;10.30;99.90;;;;;;5046872;28;20064;-51
2021/11/07 10:04:38;;;;;;;50.08;30.58;;;10.20;99.90;;;;;;5030308;28;20115;-50
2021/11/07 10:07:15;;;;;;;40.72;25.38;;;10.40;99.90;;;;;;5045469;28;20036;-47
2021/11/07 10:09:42;;;;;;;42.08;28.10;;;10.40;99.90;;;;;;5047180;28;20041;-46
2021/11/07 10:12:16;;;;;;;45.88;29.38;;;10.30;99.90;;;;;;5030308;28;20115;-49
2021/11/07 10:14:51;;;;;;;32.75;22.23;;;10.50;99.90;;;;;;5027337;28;20044;-50
2021/11/07 10:17:39;;;;;;;35.83;22.83;;;10.30;99.90;;;;;;5022828;28;20041;-51
2021/11/07 10:23:00;;;;;;;40.15;26.30;;;10.20;99.90;;;;;;5024672;28;20160;-50
2021/11/07 10:25:53;;;;;;;40.30;25.70;;;10.50;99.90;;;;;;5033411;28;20105;-50
2021/11/07 10:28:29;;;;;;;39.40;27.40;;;10.50;99.90;;;;;;5053795;28;20336;-48
2021/11/07 10:31:11;;;;;;;44.58;29.50;;;10.50;99.90;;;;;;5055192;28;20029;-50
2021/11/07 10:34:22;;;;;;;44.78;27.95;;;10.50;99.90;;;;;;5056614;28;20037;-47
2021/11/07 10:39:38;;;;;;;41.25;28.73;;;10.60;99.90;;;;;;5065229;28;20368;-47
2021/11/07 10:45:17;;;;;;;36.47;25.30;;;11.10;99.90;;;;;;5039041;28;20188;-46
2021/11/07 10:53:15;;;;;;;52.17;28.15;;;11.20;99.90;;;;;;5035680;28;20099;-48
2021/11/07 10:55:53;;;;;;;44.92;25.52;;;11.20;99.90;;;;;;5008265;28;20072;-48
2021/11/07 10:58:30;;;;;;;49.50;29.25;;;11.20;99.90;;;;;;5033442;28;20101;-50
2021/11/07 11:00:59;;;;;;;49.15;30.70;;;11.10;99.90;;;;;;5042276;28;20480;-48
2021/11/07 11:03:26;;;;;;;59.45;33.15;;;11.20;99.90;;;;;;5015998;28;20033;-52
2021/11/07 11:08:43;;;;;;;49.42;29.23;;;11.30;99.90;;;;;;5040200;28;20120;-48
2021/11/07 11:13:54;;;;;;;51.80;30.35;;;11.40;99.90;;;;;;5035653;28;20033;-52
2021/11/07 11:24:46;;;;;;;51.72;30.05;;;11.60;99.90;;;;;;5068586;28;20154;-53
2021/11/07 11:45:05;;;;;;;42.67;27.63;;;11.60;99.90;;;;;;5004073;28;20041;-42
2021/11/07 11:48:03;;;;;;;87.13;48.35;;;11.60;99.90;;;;;;4987763;28;20038;-47
2021/11/07 11:56:41;;;;;;;37.55;23.13;;;11.70;99.90;;;;;;4952472;28;19931;-47
2021/11/07 11:59:11;;;;;;;46.97;32.28;;;11.80;99.90;;;;;;4952017;28;20084;-47
2021/11/07 12:01:48;;;;;;;53.13;32.38;;;11.50;99.90;;;;;;4950477;28;20094;-43
2021/11/07 12:06:49;;;;;;;52.47;32.13;;;11.50;99.90;;;;;;4938325;28;20046;-48
2021/11/07 12:12:25;;;;;;;45.25;29.25;;;10.70;99.90;;;;;;4954242;28;20067;-47
2021/11/07 12:15:08;;;;;;;47.80;28.52;;;10.40;99.90;;;;;;4954277;28;20050;-50
2021/11/07 12:17:36;;;;;;;41.63;27.38;;;10.80;99.90;;;;;;4995765;28;20172;-48
2021/11/07 12:20:21;;;;;;;48.70;31.58;;;11.10;99.90;;;;;;5018738;28;20037;-55
2021/11/07 12:22:48;;;;;;;139.43;62.35;;;11.10;99.90;;;;;;4991459;28;20049;-43
2021/11/07 12:25:14;;;;;;;85.05;48.53;;;11.30;99.90;;;;;;5017618;28;20018;-45
2021/11/07 12:27:52;;;;;;;50.97;30.90;;;11.10;99.90;;;;;;5041075;28;20043;-46
2021/11/07 12:30:28;;;;;;;44.05;28.45;;;10.80;99.90;;;;;;5059568;28;20628;-47
2021/11/07 12:33:04;;;;;;;48.40;31.92;;;10.80;99.90;;;;;;5063089;28;20031;-44
2021/11/07 12:35:42;;;;;;;46.60;29.67;;;10.80;99.90;;;;;;5061798;28;20029;-44
2021/11/07 12:41:00;;;;;;;42.72;26.63;;;10.10;99.90;;;;;;5064414;28;20081;-45
2021/11/07 12:43:37;;;;;;;43.05;29.02;;;10.00;99.90;;;;;;5063921;28;20044;-46
2021/11/07 12:49:14;;;;;;;40.90;23.65;;;9.70;99.90;;;;;;5067112;28;20067;-46
2021/11/07 12:51:47;;;;;;;45.47;28.50;;;9.60;99.90;;;;;;5067141;28;20020;-46
2021/11/07 12:54:13;;;;;;;41.03;27.60;;;9.50;99.90;;;;;;5067479;28;20107;-51
2021/11/07 12:56:47;;;;;;;57.83;34.90;;;9.70;99.90;;;;;;5066347;28;20373;-48
2021/11/07 12:59:21;;;;;;;51.45;30.77;;;9.60;99.90;;;;;;5060205;28;20365;-47
2021/11/07 13:02:03;;;;;;;59.60;37.20;;;9.70;99.90;;;;;;5054937;28;20048;-51
2021/11/07 13:04:32;;;;;;;60.22;35.90;;;10.10;99.90;;;;;;5067573;28;20430;-43
2021/11/07 13:07:00;;;;;;;92.85;60.13;;;10.10;99.90;;;;;;5066853;28;20036;-46
2021/11/07 13:09:38;;;;;;;67.85;40.15;;;10.30;99.90;;;;;;5066151;28;20112;-45
2021/11/07 13:12:13;;;;;;;61.70;34.65;;;10.50;99.90;;;;;;5068190;28;20432;-51
2021/11/07 13:31:17;;;;;;;46.05;29.90;;;10.30;99.90;;;;;;5061792;28;20043;-47
2021/11/07 13:33:44;;;;;;;52.47;33.45;;;10.10;99.90;;;;;;5065799;28;20033;-46
2021/11/07 13:36:15;;;;;;;49.65;32.75;;;10.20;99.90;;;;;;5066413;28;20537;-49
2021/11/07 13:38:47;;;;;;;44.03;29.80;;;10.00;99.90;;;;;;5062475;28;20033;-48
2021/11/07 13:41:16;;;;;;;39.50;24.85;;;10.10;99.90;;;;;;5069278;28;20407;-50
2021/11/07 13:43:51;;;;;;;34.38;20.60;;;10.00;99.90;;;;;;5060718;28;20086;-46
2021/11/07 13:46:18;;;;;;;39.80;27.33;;;9.70;99.90;;;;;;5064303;28;20100;-48
2021/11/07 13:48:44;;;;;;;40.90;28.23;;;9.70;99.90;;;;;;5067530;28;20044;-45
2021/11/07 13:51:10;;;;;;;35.50;22.98;;;9.60;99.90;;;;;;5061281;28;20027;-48
2021/11/07 13:53:41;;;;;;;31.95;23.08;;;9.60;99.90;;;;;;5062035;28;20112;-45
2021/11/07 13:56:12;;;;;;;38.88;26.98;;;9.50;99.90;;;;;;5063106;28;20066;-45
2021/11/07 13:58:41;;;;;;;30.00;20.13;;;9.60;99.90;;;;;;5059402;28;20059;-45
2021/11/07 14:01:12;;;;;;;30.85;22.33;;;9.50;99.90;;;;;;5060053;28;20041;-46
2021/11/07 14:03:38;;;;;;;19.35;12.82;;;9.60;99.90;;;;;;5064150;28;20055;-49
2021/11/07 14:06:18;;;;;;;33.75;20.08;;;9.40;99.90;;;;;;5069081;28;20386;-44
2021/11/07 14:08:46;;;;;;;35.30;24.83;;;9.40;99.90;;;;;;5045923;28;20061;-48
2021/11/07 14:11:21;;;;;;;48.67;29.88;;;9.50;99.90;;;;;;5045108;28;20497;-48
2021/11/07 14:13:52;;;;;;;40.72;27.58;;;9.70;99.90;;;;;;5042423;28;20478;-48
2021/11/07 14:16:28;;;;;;;39.53;26.95;;;9.80;99.90;;;;;;5042355;28;20408;-49
2021/11/07 14:18:54;;;;;;;42.20;28.85;;;9.80;99.90;;;;;;5049508;28;20550;-46
2021/11/07 14:21:25;;;;;;;42.50;27.00;;;9.80;99.90;;;;;;5046477;28;20033;-46
2021/11/07 14:26:30;;;;;;;45.25;28.67;;;10.00;99.90;;;;;;5044626;28;20381;-45
2021/11/07 14:31:37;;;;;;;36.97;24.80;;;9.80;99.90;;;;;;5025624;28;20039;-47
2021/11/07 14:34:13;;;;;;;33.45;22.98;;;9.70;99.90;;;;;;5022873;28;20121;-46
2021/11/07 14:36:54;;;;;;;45.92;33.00;;;9.60;99.90;;;;;;5027559;28;20048;-46
2021/11/07 14:39:38;;;;;;;40.17;26.73;;;9.80;99.90;;;;;;5031491;28;20120;-48
2021/11/07 14:44:48;;;;;;;43.92;30.42;;;9.60;99.90;;;;;;5039707;28;20037;-48
2021/11/07 14:47:32;;;;;;;56.85;40.65;;;9.80;99.90;;;;;;5037442;28;20053;-47
2021/11/07 14:50:26;;;;;;;46.22;34.05;;;10.10;99.90;;;;;;5041853;28;20045;-45
2021/11/07 14:56:11;;;;;;;35.35;25.38;;;9.60;99.90;;;;;;5045748;28;20116;-46
2021/11/07 14:59:14;;;;;;;49.92;34.00;;;9.60;99.90;;;;;;5040325;28;20048;-48
2021/11/07 15:01:58;;;;;;;37.88;24.95;;;9.90;99.90;;;;;;5041148;28;20037;-45
2021/11/07 15:04:41;;;;;;;37.17;26.15;;;9.80;99.90;;;;;;5060071;28;20044;-47
2021/11/07 15:07:13;;;;;;;37.92;24.80;;;9.80;99.90;;;;;;5038743;28;20033;-46
2021/11/07 15:12:35;;;;;;;32.92;21.58;;;9.70;99.90;;;;;;5041256;28;20037;-48
2021/11/07 15:15:25;;;;;;;27.05;18.85;;;9.90;99.90;;;;;;5044915;28;20037;-47
2021/11/07 15:18:01;;;;;;;31.23;22.58;;;9.60;99.90;;;;;;5063696;28;20037;-46
2021/11/07 15:20:39;;;;;;;28.77;20.63;;;9.80;99.90;;;;;;5044742;28;20384;-47
2021/11/07 15:23:07;;;;;;;34.33;24.38;;;9.80;99.90;;;;;;5040640;28;20037;-48
2021/11/07 15:25:37;;;;;;;40.03;28.80;;;9.90;99.90;;;;;;5059949;28;20075;-48
2021/11/07 15:28:11;;;;;;;33.65;22.73;;;10.00;99.90;;;;;;5049275;28;20045;-47
2021/11/07 15:30:39;;;;;;;32.58;24.83;;;10.00;99.90;;;;;;5043330;28;20124;-49
2021/11/07 15:33:12;;;;;;;47.25;31.20;;;10.00;99.90;;;;;;5050041;28;20032;-48
2021/11/07 15:35:47;;;;;;;34.08;23.33;;;10.20;99.90;;;;;;5041410;28;20086;-46
2021/11/07 15:38:19;;;;;;;33.22;24.08;;;10.20;99.90;;;;;;5058893;28;20041;-44
2021/11/07 15:40:45;;;;;;;36.47;26.30;;;9.90;99.90;;;;;;5059566;28;20037;-45
2021/11/07 15:43:25;;;;;;;36.13;26.13;;;9.90;99.90;;;;;;5058065;28;20041;-45